Dallas, South Dakota
Current Conditions -  °F | °C
As of 9:53 PM on Saturday 25 Oct 2014 (Local Time) from KICR Reporting Station
Clear Clear  
Wind Chill: 44°   Ceiling: Unl
Heat Index: 49°   Visibility: 10mi
Dew Point: 33°   Wind: 13mph
Humidity: 54%   Direction: 130°SE
Pressure: 29.99"   Gusts: NA
Location:  43.24°N, 99.52°W
Report Text: KICR 260253Z AUTO 13011KT 10SM CLR 09/01 A2999 RMK AO2 SLP160 T00940006 58012 $
Loading
Personal Weather Stations






























Interactive Weather Map
Tropical Storm Tracking
New forecast layout! Learn more

10-Day Weather Forecast

Advertisements
Track Severe Weather on mobile